Pagina principale
METAR-TAF:

METAR-TAF

Aeroporti :

Brazza, Croazia

latitudine: 43-17-09N, longitudine: 016-40-47E, altezza: 541 m

Osservazione

Il bollettino è stato emesso 7 ore e 19 minuti fa, alle 16:00 UTC
Vento 5 kt da ovest/nord-ovest, variando fra ovest/sud-ovest e nord
Temperature 29°C
Umidità 37%
Pressione 1019 hPa
Visibilità 10 km o più
nessuna nube inferiore a 1500 m e nessun cumulonembo

METAR: LDSB 191600Z 30005KT 240V350 CAVOK 29/13 Q1019

Ora: 01:19 (23:19 UTC)

Previsione

Il bollettino è stato emesso 5 ore e 54 minuti fa, alle 17:25 UTC
Previsione valida dal 19 alle 18 UTC al 20 alle 18 UTC
Vento 8 kt da ovest/nord-ovest
Visibilità 10 km o più
nessuna nube inferiore a 1500 m e nessun cumulonembo
Temporaneamente
dal 20 alle 10 UTC al 20 alle 18 UTC
Vento 15 kt da ovest/nord-ovest

TAF: LDSB 191725Z 1918/2018 30008KT CAVOK TX36/2012Z TN25/2003Z TEMPO 2010/2018 30015KT

Osservazioni e previsioni meteorologiche di più di 4000 aeroporti (messaggi METAR e TAF).

Le stazioni disponibili sono rappresentate dai dischi gialli e rossi sulla carta.

Puntare il mouse per vedere il nome della stazione.

Clicca sopra per visualizzare le osservazioni e previsioni meteorologiche.

Per cambiare la mappa : fare clic sui pulsanti verdi con una croce nera per ingrandire, il pulsante verde con un trattino per diminuire, o sulla freccia verde per le mappe adiacenti.


METAR-TAF: